sensor_id;sensor_type;location;lat;lon;timestamp;P1;durP1;ratioP1;P2;durP2;ratioP2
48805;SDS011;34625;47.176;27.548;2024-01-11T00:00:45;53.03;;;30.92;;
48805;SDS011;34625;47.176;27.548;2024-01-11T00:03:11;60.10;;;32.28;;
48805;SDS011;34625;47.176;27.548;2024-01-11T00:05:37;53.92;;;30.67;;
48805;SDS011;34625;47.176;27.548;2024-01-11T00:08:04;56.90;;;31.10;;
48805;SDS011;34625;47.176;27.548;2024-01-11T00:10:30;52.58;;;30.83;;
48805;SDS011;34625;47.176;27.548;2024-01-11T00:12:56;55.08;;;32.15;;
48805;SDS011;34625;47.176;27.548;2024-01-11T00:15:22;49.83;;;29.55;;
48805;SDS011;34625;47.176;27.548;2024-01-11T00:17:48;47.83;;;30.60;;
48805;SDS011;34625;47.176;27.548;2024-01-11T00:20:14;47.47;;;29.42;;
48805;SDS011;34625;47.176;27.548;2024-01-11T00:22:41;48.67;;;28.67;;
48805;SDS011;34625;47.176;27.548;2024-01-11T00:25:07;53.25;;;31.10;;
48805;SDS011;34625;47.176;27.548;2024-01-11T00:27:33;50.80;;;29.75;;
48805;SDS011;34625;47.176;27.548;2024-01-11T00:29:59;49.15;;;29.27;;
48805;SDS011;34625;47.176;27.548;2024-01-11T00:32:25;43.97;;;26.77;;
48805;SDS011;34625;47.176;27.548;2024-01-11T00:34:52;49.65;;;29.95;;
48805;SDS011;34625;47.176;27.548;2024-01-11T00:37:18;50.03;;;29.85;;
48805;SDS011;34625;47.176;27.548;2024-01-11T00:39:44;54.80;;;33.20;;
48805;SDS011;34625;47.176;27.548;2024-01-11T00:42:10;55.00;;;33.40;;
48805;SDS011;34625;47.176;27.548;2024-01-11T00:44:36;52.30;;;34.10;;
48805;SDS011;34625;47.176;27.548;2024-01-11T00:47:02;59.65;;;32.83;;
48805;SDS011;34625;47.176;27.548;2024-01-11T00:49:28;57.58;;;34.15;;
48805;SDS011;34625;47.176;27.548;2024-01-11T00:51:54;61.42;;;34.20;;
48805;SDS011;34625;47.176;27.548;2024-01-11T00:54:20;58.30;;;33.22;;
48805;SDS011;34625;47.176;27.548;2024-01-11T00:56:47;56.20;;;32.20;;
48805;SDS011;34625;47.176;27.548;2024-01-11T00:59:13;60.53;;;33.50;;
48805;SDS011;34625;47.176;27.548;2024-01-11T01:01:39;60.28;;;33.25;;
48805;SDS011;34625;47.176;27.548;2024-01-11T01:04:05;43.42;;;28.67;;
48805;SDS011;34625;47.176;27.548;2024-01-11T01:06:31;59.10;;;32.65;;
48805;SDS011;34625;47.176;27.548;2024-01-11T01:08:57;55.88;;;31.98;;
48805;SDS011;34625;47.176;27.548;2024-01-11T01:11:23;50.90;;;33.30;;
48805;SDS011;34625;47.176;27.548;2024-01-11T01:13:50;61.38;;;34.58;;
48805;SDS011;34625;47.176;27.548;2024-01-11T01:16:16;56.97;;;31.90;;
48805;SDS011;34625;47.176;27.548;2024-01-11T01:18:43;58.95;;;33.65;;
48805;SDS011;34625;47.176;27.548;2024-01-11T01:21:09;54.65;;;32.72;;
48805;SDS011;34625;47.176;27.548;2024-01-11T01:23:35;56.58;;;32.63;;
48805;SDS011;34625;47.176;27.548;2024-01-11T01:26:01;57.30;;;33.38;;
48805;SDS011;34625;47.176;27.548;2024-01-11T01:28:27;59.22;;;34.00;;
48805;SDS011;34625;47.176;27.548;2024-01-11T01:30:53;48.60;;;29.83;;
48805;SDS011;34625;47.176;27.548;2024-01-11T01:33:19;50.50;;;30.83;;
48805;SDS011;34625;47.176;27.548;2024-01-11T01:35:46;55.92;;;31.42;;
48805;SDS011;34625;47.176;27.548;2024-01-11T01:38:12;48.72;;;29.98;;
48805;SDS011;34625;47.176;27.548;2024-01-11T01:40:38;46.63;;;28.80;;
48805;SDS011;34625;47.176;27.548;2024-01-11T01:43:06;47.20;;;30.60;;
48805;SDS011;34625;47.176;27.548;2024-01-11T01:45:36;47.42;;;27.83;;
48805;SDS011;34625;47.176;27.548;2024-01-11T01:48:02;45.63;;;26.40;;
48805;SDS011;34625;47.176;27.548;2024-01-11T01:50:29;45.92;;;27.70;;
48805;SDS011;34625;47.176;27.548;2024-01-11T01:52:56;44.55;;;27.40;;
48805;SDS011;34625;47.176;27.548;2024-01-11T01:55:23;48.97;;;27.73;;
48805;SDS011;34625;47.176;27.548;2024-01-11T01:57:50;46.92;;;27.63;;
48805;SDS011;34625;47.176;27.548;2024-01-11T02:00:18;41.53;;;25.65;;
48805;SDS011;34625;47.176;27.548;2024-01-11T02:02:45;49.60;;;27.35;;
48805;SDS011;34625;47.176;27.548;2024-01-11T02:05:15;48.67;;;28.90;;
48805;SDS011;34625;47.176;27.548;2024-01-11T02:07:43;42.50;;;26.42;;
48805;SDS011;34625;47.176;27.548;2024-01-11T02:10:10;47.10;;;27.20;;
48805;SDS011;34625;47.176;27.548;2024-01-11T02:12:36;47.90;;;28.30;;
48805;SDS011;34625;47.176;27.548;2024-01-11T02:15:05;42.58;;;26.92;;
48805;SDS011;34625;47.176;27.548;2024-01-11T02:17:33;47.97;;;27.58;;
48805;SDS011;34625;47.176;27.548;2024-01-11T02:19:59;52.20;;;30.55;;
48805;SDS011;34625;47.176;27.548;2024-01-11T02:22:36;52.85;;;31.95;;
48805;SDS011;34625;47.176;27.548;2024-01-11T02:25:05;52.08;;;30.80;;
48805;SDS011;34625;47.176;27.548;2024-01-11T02:27:44;50.58;;;30.23;;
48805;SDS011;34625;47.176;27.548;2024-01-11T02:30:11;49.47;;;29.35;;
48805;SDS011;34625;47.176;27.548;2024-01-11T02:32:37;48.88;;;29.35;;
48805;SDS011;34625;47.176;27.548;2024-01-11T02:35:04;50.13;;;29.60;;
48805;SDS011;34625;47.176;27.548;2024-01-11T02:37:30;48.20;;;29.15;;
48805;SDS011;34625;47.176;27.548;2024-01-11T02:39:56;48.00;;;30.17;;
48805;SDS011;34625;47.176;27.548;2024-01-11T02:42:23;52.05;;;30.92;;
48805;SDS011;34625;47.176;27.548;2024-01-11T02:44:49;54.65;;;33.03;;
48805;SDS011;34625;47.176;27.548;2024-01-11T02:47:15;46.65;;;29.85;;
48805;SDS011;34625;47.176;27.548;2024-01-11T02:49:41;56.08;;;31.83;;
48805;SDS011;34625;47.176;27.548;2024-01-11T02:52:07;51.88;;;30.35;;
48805;SDS011;34625;47.176;27.548;2024-01-11T02:54:33;56.20;;;32.72;;
48805;SDS011;34625;47.176;27.548;2024-01-11T02:56:59;49.13;;;29.83;;
48805;SDS011;34625;47.176;27.548;2024-01-11T02:59:25;51.10;;;30.40;;
48805;SDS011;34625;47.176;27.548;2024-01-11T03:01:52;54.13;;;32.63;;
48805;SDS011;34625;47.176;27.548;2024-01-11T03:04:18;52.05;;;31.40;;
48805;SDS011;34625;47.176;27.548;2024-01-11T03:06:44;55.28;;;32.03;;
48805;SDS011;34625;47.176;27.548;2024-01-11T03:09:10;50.10;;;30.92;;
48805;SDS011;34625;47.176;27.548;2024-01-11T03:11:36;51.03;;;30.23;;
48805;SDS011;34625;47.176;27.548;2024-01-11T03:14:03;48.90;;;30.17;;
48805;SDS011;34625;47.176;27.548;2024-01-11T03:16:29;47.97;;;29.88;;
48805;SDS011;34625;47.176;27.548;2024-01-11T03:18:55;47.70;;;29.38;;
48805;SDS011;34625;47.176;27.548;2024-01-11T03:21:21;47.25;;;29.70;;
48805;SDS011;34625;47.176;27.548;2024-01-11T03:23:47;46.50;;;28.50;;
48805;SDS011;34625;47.176;27.548;2024-01-11T03:26:15;49.10;;;29.42;;
48805;SDS011;34625;47.176;27.548;2024-01-11T03:28:42;49.22;;;29.73;;
48805;SDS011;34625;47.176;27.548;2024-01-11T03:31:09;47.72;;;29.42;;
48805;SDS011;34625;47.176;27.548;2024-01-11T03:33:36;49.00;;;30.13;;
48805;SDS011;34625;47.176;27.548;2024-01-11T03:36:09;46.03;;;29.33;;
48805;SDS011;34625;47.176;27.548;2024-01-11T03:38:36;46.00;;;28.20;;
48805;SDS011;34625;47.176;27.548;2024-01-11T03:41:07;48.92;;;29.70;;
48805;SDS011;34625;47.176;27.548;2024-01-11T03:43:37;53.33;;;30.25;;
48805;SDS011;34625;47.176;27.548;2024-01-11T03:46:03;46.70;;;28.38;;
48805;SDS011;34625;47.176;27.548;2024-01-11T03:48:30;46.00;;;28.55;;
48805;SDS011;34625;47.176;27.548;2024-01-11T03:50:57;44.45;;;27.30;;
48805;SDS011;34625;47.176;27.548;2024-01-11T03:53:23;43.83;;;26.98;;
48805;SDS011;34625;47.176;27.548;2024-01-11T03:55:49;42.60;;;25.77;;
48805;SDS011;34625;47.176;27.548;2024-01-11T03:58:15;35.67;;;24.38;;
48805;SDS011;34625;47.176;27.548;2024-01-11T04:00:41;39.65;;;24.17;;
48805;SDS011;34625;47.176;27.548;2024-01-11T04:03:07;37.20;;;24.73;;
48805;SDS011;34625;47.176;27.548;2024-01-11T04:05:33;39.78;;;24.77;;
48805;SDS011;34625;47.176;27.548;2024-01-11T04:07:59;44.28;;;27.50;;
48805;SDS011;34625;47.176;27.548;2024-01-11T04:10:28;44.75;;;27.70;;
48805;SDS011;34625;47.176;27.548;2024-01-11T04:12:54;49.75;;;28.42;;
48805;SDS011;34625;47.176;27.548;2024-01-11T04:15:20;47.30;;;28.83;;
48805;SDS011;34625;47.176;27.548;2024-01-11T04:17:46;39.85;;;26.02;;
48805;SDS011;34625;47.176;27.548;2024-01-11T04:20:12;50.65;;;28.52;;
48805;SDS011;34625;47.176;27.548;2024-01-11T04:22:39;47.03;;;27.27;;
48805;SDS011;34625;47.176;27.548;2024-01-11T04:25:05;47.97;;;27.13;;
48805;SDS011;34625;47.176;27.548;2024-01-11T04:27:32;45.05;;;26.45;;
48805;SDS011;34625;47.176;27.548;2024-01-11T04:29:58;48.15;;;24.20;;
48805;SDS011;34625;47.176;27.548;2024-01-11T04:32:24;46.60;;;26.38;;
48805;SDS011;34625;47.176;27.548;2024-01-11T04:34:50;46.38;;;27.17;;
48805;SDS011;34625;47.176;27.548;2024-01-11T04:37:17;42.03;;;25.42;;
48805;SDS011;34625;47.176;27.548;2024-01-11T04:39:44;42.75;;;25.83;;
48805;SDS011;34625;47.176;27.548;2024-01-11T04:42:10;39.35;;;24.17;;
48805;SDS011;34625;47.176;27.548;2024-01-11T04:44:36;50.08;;;28.23;;
48805;SDS011;34625;47.176;27.548;2024-01-11T04:47:02;44.97;;;27.65;;
48805;SDS011;34625;47.176;27.548;2024-01-11T04:49:28;51.10;;;27.50;;
48805;SDS011;34625;47.176;27.548;2024-01-11T04:51:54;43.53;;;27.75;;
48805;SDS011;34625;47.176;27.548;2024-01-11T04:54:20;50.45;;;29.20;;
48805;SDS011;34625;47.176;27.548;2024-01-11T04:56:46;47.95;;;28.77;;
48805;SDS011;34625;47.176;27.548;2024-01-11T04:59:12;49.65;;;29.48;;
48805;SDS011;34625;47.176;27.548;2024-01-11T05:01:39;48.30;;;28.02;;
48805;SDS011;34625;47.176;27.548;2024-01-11T05:04:06;54.40;;;29.67;;
48805;SDS011;34625;47.176;27.548;2024-01-11T05:06:32;43.85;;;26.88;;
48805;SDS011;34625;47.176;27.548;2024-01-11T05:08:58;46.15;;;27.73;;
48805;SDS011;34625;47.176;27.548;2024-01-11T05:11:24;39.22;;;25.55;;
48805;SDS011;34625;47.176;27.548;2024-01-11T05:13:52;21.98;;;14.25;;
48805;SDS011;34625;47.176;27.548;2024-01-11T05:16:21;19.63;;;12.70;;
48805;SDS011;34625;47.176;27.548;2024-01-11T05:18:48;25.25;;;14.82;;
48805;SDS011;34625;47.176;27.548;2024-01-11T05:21:15;35.00;;;23.00;;
48805;SDS011;34625;47.176;27.548;2024-01-11T05:23:41;34.20;;;23.58;;
48805;SDS011;34625;47.176;27.548;2024-01-11T05:26:08;34.90;;;23.30;;
48805;SDS011;34625;47.176;27.548;2024-01-11T05:28:34;44.50;;;24.80;;
48805;SDS011;34625;47.176;27.548;2024-01-11T05:31:00;37.90;;;23.85;;
48805;SDS011;34625;47.176;27.548;2024-01-11T05:33:26;37.30;;;23.50;;
48805;SDS011;34625;47.176;27.548;2024-01-11T05:35:52;40.15;;;24.77;;
48805;SDS011;34625;47.176;27.548;2024-01-11T05:38:19;40.00;;;23.58;;
48805;SDS011;34625;47.176;27.548;2024-01-11T05:40:45;35.95;;;22.83;;
48805;SDS011;34625;47.176;27.548;2024-01-11T05:43:11;35.45;;;21.73;;
48805;SDS011;34625;47.176;27.548;2024-01-11T05:45:38;30.95;;;21.08;;
48805;SDS011;34625;47.176;27.548;2024-01-11T05:48:04;43.92;;;24.05;;
48805;SDS011;34625;47.176;27.548;2024-01-11T05:50:31;38.45;;;22.90;;
48805;SDS011;34625;47.176;27.548;2024-01-11T05:52:57;36.78;;;22.88;;
48805;SDS011;34625;47.176;27.548;2024-01-11T05:55:23;35.38;;;22.73;;
48805;SDS011;34625;47.176;27.548;2024-01-11T05:57:50;36.35;;;23.42;;
48805;SDS011;34625;47.176;27.548;2024-01-11T06:00:16;23.20;;;16.63;;
48805;SDS011;34625;47.176;27.548;2024-01-11T06:02:42;21.05;;;16.67;;
48805;SDS011;34625;47.176;27.548;2024-01-11T06:05:09;19.33;;;16.00;;
48805;SDS011;34625;47.176;27.548;2024-01-11T06:07:35;20.38;;;17.08;;
48805;SDS011;34625;47.176;27.548;2024-01-11T06:10:01;22.17;;;16.85;;
48805;SDS011;34625;47.176;27.548;2024-01-11T06:12:28;20.27;;;16.70;;
48805;SDS011;34625;47.176;27.548;2024-01-11T06:14:54;20.55;;;17.02;;
48805;SDS011;34625;47.176;27.548;2024-01-11T06:17:20;22.17;;;17.63;;
48805;SDS011;34625;47.176;27.548;2024-01-11T06:19:46;22.63;;;17.95;;
48805;SDS011;34625;47.176;27.548;2024-01-11T06:22:13;22.15;;;18.35;;
48805;SDS011;34625;47.176;27.548;2024-01-11T06:24:39;19.25;;;16.27;;
48805;SDS011;34625;47.176;27.548;2024-01-11T06:27:05;19.20;;;16.13;;
48805;SDS011;34625;47.176;27.548;2024-01-11T06:29:31;18.55;;;14.50;;
48805;SDS011;34625;47.176;27.548;2024-01-11T06:31:57;16.17;;;13.55;;
48805;SDS011;34625;47.176;27.548;2024-01-11T06:34:23;21.02;;;14.45;;
48805;SDS011;34625;47.176;27.548;2024-01-11T06:36:49;20.17;;;14.57;;
48805;SDS011;34625;47.176;27.548;2024-01-11T06:39:15;18.70;;;14.13;;
48805;SDS011;34625;47.176;27.548;2024-01-11T06:41:43;19.83;;;15.35;;
48805;SDS011;34625;47.176;27.548;2024-01-11T06:44:09;17.75;;;14.77;;
48805;SDS011;34625;47.176;27.548;2024-01-11T06:46:35;17.70;;;12.43;;
48805;SDS011;34625;47.176;27.548;2024-01-11T06:49:10;42.72;;;24.40;;
48805;SDS011;34625;47.176;27.548;2024-01-11T06:51:36;41.85;;;26.75;;
48805;SDS011;34625;47.176;27.548;2024-01-11T06:54:04;43.17;;;27.15;;
48805;SDS011;34625;47.176;27.548;2024-01-11T06:56:30;40.35;;;25.08;;
48805;SDS011;34625;47.176;27.548;2024-01-11T06:58:56;25.25;;;15.38;;
48805;SDS011;34625;47.176;27.548;2024-01-11T07:01:22;33.53;;;21.10;;
48805;SDS011;34625;47.176;27.548;2024-01-11T07:03:48;33.45;;;20.77;;
48805;SDS011;34625;47.176;27.548;2024-01-11T07:06:15;16.38;;;10.80;;
48805;SDS011;34625;47.176;27.548;2024-01-11T07:08:41;14.00;;;9.80;;
48805;SDS011;34625;47.176;27.548;2024-01-11T07:11:07;13.65;;;9.98;;
48805;SDS011;34625;47.176;27.548;2024-01-11T07:13:33;18.90;;;10.27;;
48805;SDS011;34625;47.176;27.548;2024-01-11T07:15:59;17.60;;;10.27;;
48805;SDS011;34625;47.176;27.548;2024-01-11T07:18:25;12.45;;;9.00;;
48805;SDS011;34625;47.176;27.548;2024-01-11T07:20:52;12.93;;;9.40;;
48805;SDS011;34625;47.176;27.548;2024-01-11T07:23:21;46.28;;;28.52;;
48805;SDS011;34625;47.176;27.548;2024-01-11T07:25:47;49.22;;;29.52;;
48805;SDS011;34625;47.176;27.548;2024-01-11T07:28:13;49.42;;;30.00;;
48805;SDS011;34625;47.176;27.548;2024-01-11T07:30:39;41.75;;;27.73;;
48805;SDS011;34625;47.176;27.548;2024-01-11T07:33:06;50.83;;;29.00;;
48805;SDS011;34625;47.176;27.548;2024-01-11T07:35:32;48.53;;;29.98;;
48805;SDS011;34625;47.176;27.548;2024-01-11T07:37:58;50.33;;;31.60;;
48805;SDS011;34625;47.176;27.548;2024-01-11T07:40:24;56.55;;;33.58;;
48805;SDS011;34625;47.176;27.548;2024-01-11T07:42:50;52.08;;;31.92;;
48805;SDS011;34625;47.176;27.548;2024-01-11T07:45:16;54.65;;;30.85;;
48805;SDS011;34625;47.176;27.548;2024-01-11T07:47:42;47.65;;;30.88;;
48805;SDS011;34625;47.176;27.548;2024-01-11T07:50:08;52.10;;;31.42;;
48805;SDS011;34625;47.176;27.548;2024-01-11T07:52:35;47.75;;;30.17;;
48805;SDS011;34625;47.176;27.548;2024-01-11T07:55:02;50.00;;;30.77;;
48805;SDS011;34625;47.176;27.548;2024-01-11T07:57:33;47.83;;;28.10;;
48805;SDS011;34625;47.176;27.548;2024-01-11T07:59:59;47.72;;;30.17;;
48805;SDS011;34625;47.176;27.548;2024-01-11T08:02:26;51.63;;;32.72;;
48805;SDS011;34625;47.176;27.548;2024-01-11T08:04:52;47.45;;;29.55;;
48805;SDS011;34625;47.176;27.548;2024-01-11T08:07:18;49.17;;;29.08;;
48805;SDS011;34625;47.176;27.548;2024-01-11T08:09:44;48.92;;;31.02;;
48805;SDS011;34625;47.176;27.548;2024-01-11T08:12:11;46.55;;;29.38;;
48805;SDS011;34625;47.176;27.548;2024-01-11T08:14:38;43.33;;;28.33;;
48805;SDS011;34625;47.176;27.548;2024-01-11T08:17:05;49.30;;;29.55;;
48805;SDS011;34625;47.176;27.548;2024-01-11T08:19:31;45.72;;;28.52;;
48805;SDS011;34625;47.176;27.548;2024-01-11T08:21:58;45.92;;;27.65;;
48805;SDS011;34625;47.176;27.548;2024-01-11T08:24:24;46.60;;;27.90;;
48805;SDS011;34625;47.176;27.548;2024-01-11T08:26:50;41.67;;;27.88;;
48805;SDS011;34625;47.176;27.548;2024-01-11T08:29:17;42.25;;;27.70;;
48805;SDS011;34625;47.176;27.548;2024-01-11T08:31:47;41.80;;;27.67;;
48805;SDS011;34625;47.176;27.548;2024-01-11T08:34:14;42.95;;;27.58;;
48805;SDS011;34625;47.176;27.548;2024-01-11T08:36:40;46.88;;;27.95;;
48805;SDS011;34625;47.176;27.548;2024-01-11T08:39:06;40.97;;;26.75;;
48805;SDS011;34625;47.176;27.548;2024-01-11T08:41:33;46.80;;;26.85;;
48805;SDS011;34625;47.176;27.548;2024-01-11T08:44:09;41.03;;;25.23;;
48805;SDS011;34625;47.176;27.548;2024-01-11T08:46:35;42.10;;;27.88;;
48805;SDS011;34625;47.176;27.548;2024-01-11T08:49:02;44.92;;;26.13;;
48805;SDS011;34625;47.176;27.548;2024-01-11T08:51:31;37.65;;;26.30;;
48805;SDS011;34625;47.176;27.548;2024-01-11T08:54:00;44.58;;;27.38;;
48805;SDS011;34625;47.176;27.548;2024-01-11T08:56:26;37.72;;;24.10;;
48805;SDS011;34625;47.176;27.548;2024-01-11T08:58:53;37.28;;;23.13;;
48805;SDS011;34625;47.176;27.548;2024-01-11T09:01:19;37.70;;;23.05;;
48805;SDS011;34625;47.176;27.548;2024-01-11T09:03:45;36.03;;;22.20;;
48805;SDS011;34625;47.176;27.548;2024-01-11T09:06:13;37.38;;;21.30;;
48805;SDS011;34625;47.176;27.548;2024-01-11T09:08:39;30.50;;;20.98;;
48805;SDS011;34625;47.176;27.548;2024-01-11T09:11:07;32.35;;;19.92;;
48805;SDS011;34625;47.176;27.548;2024-01-11T09:13:36;35.00;;;22.30;;
48805;SDS011;34625;47.176;27.548;2024-01-11T09:16:02;33.35;;;21.17;;
48805;SDS011;34625;47.176;27.548;2024-01-11T09:18:28;34.65;;;21.10;;
48805;SDS011;34625;47.176;27.548;2024-01-11T09:20:54;32.25;;;20.95;;
48805;SDS011;34625;47.176;27.548;2024-01-11T09:23:21;33.70;;;21.13;;
48805;SDS011;34625;47.176;27.548;2024-01-11T09:25:47;31.42;;;20.33;;
48805;SDS011;34625;47.176;27.548;2024-01-11T09:28:13;32.58;;;20.83;;
48805;SDS011;34625;47.176;27.548;2024-01-11T09:30:39;31.92;;;19.83;;
48805;SDS011;34625;47.176;27.548;2024-01-11T09:33:06;25.05;;;17.42;;
48805;SDS011;34625;47.176;27.548;2024-01-11T09:35:32;27.05;;;17.70;;
48805;SDS011;34625;47.176;27.548;2024-01-11T09:37:58;28.20;;;17.40;;
48805;SDS011;34625;47.176;27.548;2024-01-11T09:40:24;28.77;;;17.85;;
48805;SDS011;34625;47.176;27.548;2024-01-11T09:42:50;28.75;;;18.17;;
48805;SDS011;34625;47.176;27.548;2024-01-11T09:45:16;14.57;;;10.20;;
48805;SDS011;34625;47.176;27.548;2024-01-11T09:47:45;14.93;;;10.52;;
48805;SDS011;34625;47.176;27.548;2024-01-11T09:50:13;14.43;;;10.57;;
48805;SDS011;34625;47.176;27.548;2024-01-11T09:52:47;27.05;;;16.90;;
48805;SDS011;34625;47.176;27.548;2024-01-11T09:55:15;25.92;;;18.40;;
48805;SDS011;34625;47.176;27.548;2024-01-11T09:57:44;26.90;;;17.42;;
48805;SDS011;34625;47.176;27.548;2024-01-11T10:00:18;25.65;;;16.75;;
48805;SDS011;34625;47.176;27.548;2024-01-11T10:02:48;28.15;;;16.67;;
48805;SDS011;34625;47.176;27.548;2024-01-11T10:05:18;24.88;;;16.58;;
48805;SDS011;34625;47.176;27.548;2024-01-11T10:07:44;25.70;;;15.85;;
48805;SDS011;34625;47.176;27.548;2024-01-11T10:10:13;29.75;;;17.58;;
48805;SDS011;34625;47.176;27.548;2024-01-11T10:12:43;31.27;;;17.70;;
48805;SDS011;34625;47.176;27.548;2024-01-11T10:15:09;27.10;;;17.27;;
48805;SDS011;34625;47.176;27.548;2024-01-11T10:17:37;28.25;;;17.40;;
48805;SDS011;34625;47.176;27.548;2024-01-11T10:20:08;25.80;;;17.33;;
48805;SDS011;34625;47.176;27.548;2024-01-11T10:22:36;24.80;;;16.73;;
48805;SDS011;34625;47.176;27.548;2024-01-11T10:27:36;26.98;;;16.98;;
48805;SDS011;34625;47.176;27.548;2024-01-11T10:30:03;29.88;;;18.95;;
48805;SDS011;34625;47.176;27.548;2024-01-11T10:32:33;28.77;;;17.38;;
48805;SDS011;34625;47.176;27.548;2024-01-11T10:35:00;11.45;;;8.15;;
48805;SDS011;34625;47.176;27.548;2024-01-11T10:37:30;27.25;;;9.88;;
48805;SDS011;34625;47.176;27.548;2024-01-11T10:39:58;12.55;;;9.23;;
48805;SDS011;34625;47.176;27.548;2024-01-11T10:42:31;14.38;;;10.15;;
48805;SDS011;34625;47.176;27.548;2024-01-11T10:44:58;22.10;;;12.32;;
48805;SDS011;34625;47.176;27.548;2024-01-11T10:47:30;27.30;;;11.15;;
48805;SDS011;34625;47.176;27.548;2024-01-11T10:49:57;16.63;;;10.55;;
48805;SDS011;34625;47.176;27.548;2024-01-11T10:52:28;24.08;;;16.48;;
48805;SDS011;34625;47.176;27.548;2024-01-11T10:55:00;29.48;;;16.80;;
48805;SDS011;34625;47.176;27.548;2024-01-11T10:57:27;15.77;;;10.43;;
48805;SDS011;34625;47.176;27.548;2024-01-11T10:59:54;17.63;;;9.52;;
48805;SDS011;34625;47.176;27.548;2024-01-11T11:02:22;17.35;;;10.20;;
48805;SDS011;34625;47.176;27.548;2024-01-11T11:04:49;24.27;;;14.88;;
48805;SDS011;34625;47.176;27.548;2024-01-11T11:07:18;20.27;;;10.65;;
48805;SDS011;34625;47.176;27.548;2024-01-11T11:09:45;26.67;;;17.65;;
48805;SDS011;34625;47.176;27.548;2024-01-11T11:12:14;26.00;;;18.52;;
48805;SDS011;34625;47.176;27.548;2024-01-11T11:14:42;25.08;;;17.13;;
48805;SDS011;34625;47.176;27.548;2024-01-11T11:17:14;28.20;;;15.82;;
48805;SDS011;34625;47.176;27.548;2024-01-11T11:19:40;26.27;;;16.75;;
48805;SDS011;34625;47.176;27.548;2024-01-11T11:22:08;25.42;;;16.55;;
48805;SDS011;34625;47.176;27.548;2024-01-11T11:24:34;24.80;;;15.93;;
48805;SDS011;34625;47.176;27.548;2024-01-11T11:27:00;28.55;;;17.05;;
48805;SDS011;34625;47.176;27.548;2024-01-11T11:29:27;22.25;;;15.25;;
48805;SDS011;34625;47.176;27.548;2024-01-11T11:31:53;25.10;;;16.65;;
48805;SDS011;34625;47.176;27.548;2024-01-11T11:34:19;27.73;;;17.08;;
48805;SDS011;34625;47.176;27.548;2024-01-11T11:36:46;26.02;;;16.25;;
48805;SDS011;34625;47.176;27.548;2024-01-11T11:39:14;24.77;;;16.20;;
48805;SDS011;34625;47.176;27.548;2024-01-11T11:41:41;27.98;;;16.27;;
48805;SDS011;34625;47.176;27.548;2024-01-11T11:44:07;26.08;;;17.15;;
48805;SDS011;34625;47.176;27.548;2024-01-11T11:46:41;24.75;;;16.30;;
48805;SDS011;34625;47.176;27.548;2024-01-11T11:49:07;26.35;;;15.70;;
48805;SDS011;34625;47.176;27.548;2024-01-11T11:51:35;26.88;;;17.48;;
48805;SDS011;34625;47.176;27.548;2024-01-11T11:54:06;32.38;;;19.65;;
48805;SDS011;34625;47.176;27.548;2024-01-11T11:56:35;27.25;;;16.92;;
48805;SDS011;34625;47.176;27.548;2024-01-11T11:59:02;32.75;;;18.80;;
48805;SDS011;34625;47.176;27.548;2024-01-11T12:01:29;33.30;;;20.30;;
48805;SDS011;34625;47.176;27.548;2024-01-11T12:03:57;26.38;;;18.25;;
48805;SDS011;34625;47.176;27.548;2024-01-11T12:06:23;27.20;;;16.83;;
48805;SDS011;34625;47.176;27.548;2024-01-11T12:08:51;26.13;;;18.00;;
48805;SDS011;34625;47.176;27.548;2024-01-11T12:11:19;24.67;;;16.83;;
48805;SDS011;34625;47.176;27.548;2024-01-11T12:13:47;26.70;;;18.35;;
48805;SDS011;34625;47.176;27.548;2024-01-11T12:16:14;24.40;;;17.65;;
48805;SDS011;34625;47.176;27.548;2024-01-11T12:18:40;32.40;;;18.55;;
48805;SDS011;34625;47.176;27.548;2024-01-11T12:21:07;29.80;;;16.77;;
48805;SDS011;34625;47.176;27.548;2024-01-11T12:23:34;11.32;;;7.97;;
48805;SDS011;34625;47.176;27.548;2024-01-11T12:26:02;10.80;;;8.18;;
48805;SDS011;34625;47.176;27.548;2024-01-11T12:28:33;13.00;;;8.70;;
48805;SDS011;34625;47.176;27.548;2024-01-11T12:30:59;20.30;;;9.38;;
48805;SDS011;34625;47.176;27.548;2024-01-11T12:33:26;14.80;;;9.45;;
48805;SDS011;34625;47.176;27.548;2024-01-11T12:35:53;11.48;;;8.63;;
48805;SDS011;34625;47.176;27.548;2024-01-11T12:38:19;28.33;;;16.02;;
48805;SDS011;34625;47.176;27.548;2024-01-11T12:40:46;25.73;;;17.00;;
48805;SDS011;34625;47.176;27.548;2024-01-11T12:43:12;31.48;;;18.55;;
48805;SDS011;34625;47.176;27.548;2024-01-11T12:45:39;29.05;;;18.58;;
48805;SDS011;34625;47.176;27.548;2024-01-11T12:48:08;28.65;;;17.23;;
48805;SDS011;34625;47.176;27.548;2024-01-11T12:50:34;32.35;;;19.88;;
48805;SDS011;34625;47.176;27.548;2024-01-11T12:53:10;33.75;;;19.10;;
48805;SDS011;34625;47.176;27.548;2024-01-11T12:56:01;33.17;;;18.25;;
48805;SDS011;34625;47.176;27.548;2024-01-11T12:58:29;28.25;;;18.85;;
48805;SDS011;34625;47.176;27.548;2024-01-11T13:00:55;30.60;;;18.98;;
48805;SDS011;34625;47.176;27.548;2024-01-11T13:03:22;26.67;;;18.55;;
48805;SDS011;34625;47.176;27.548;2024-01-11T13:05:52;35.53;;;21.50;;
48805;SDS011;34625;47.176;27.548;2024-01-11T13:08:18;36.40;;;22.25;;
48805;SDS011;34625;47.176;27.548;2024-01-11T13:10:44;35.47;;;22.05;;
48805;SDS011;34625;47.176;27.548;2024-01-11T13:13:12;33.50;;;21.40;;
48805;SDS011;34625;47.176;27.548;2024-01-11T13:15:39;37.97;;;22.13;;
48805;SDS011;34625;47.176;27.548;2024-01-11T13:18:05;38.30;;;23.70;;
48805;SDS011;34625;47.176;27.548;2024-01-11T13:20:32;36.92;;;23.02;;
48805;SDS011;34625;47.176;27.548;2024-01-11T13:23:14;43.67;;;25.40;;
48805;SDS011;34625;47.176;27.548;2024-01-11T13:25:42;34.72;;;19.60;;
48805;SDS011;34625;47.176;27.548;2024-01-11T13:28:09;32.13;;;20.70;;
48805;SDS011;34625;47.176;27.548;2024-01-11T13:30:39;29.30;;;19.17;;
48805;SDS011;34625;47.176;27.548;2024-01-11T13:33:06;34.40;;;20.33;;
48805;SDS011;34625;47.176;27.548;2024-01-11T13:35:34;29.70;;;18.20;;
48805;SDS011;34625;47.176;27.548;2024-01-11T13:38:01;29.45;;;17.58;;
48805;SDS011;34625;47.176;27.548;2024-01-11T13:40:28;24.55;;;17.08;;
48805;SDS011;34625;47.176;27.548;2024-01-11T13:42:55;24.48;;;15.88;;
48805;SDS011;34625;47.176;27.548;2024-01-11T13:45:24;27.90;;;17.38;;
48805;SDS011;34625;47.176;27.548;2024-01-11T13:47:52;14.43;;;9.15;;
48805;SDS011;34625;47.176;27.548;2024-01-11T13:50:22;9.70;;;6.53;;
48805;SDS011;34625;47.176;27.548;2024-01-11T13:52:52;23.50;;;16.13;;
48805;SDS011;34625;47.176;27.548;2024-01-11T13:55:18;23.40;;;15.93;;
48805;SDS011;34625;47.176;27.548;2024-01-11T13:57:47;26.60;;;16.23;;
48805;SDS011;34625;47.176;27.548;2024-01-11T14:00:14;25.67;;;16.38;;
48805;SDS011;34625;47.176;27.548;2024-01-11T14:02:40;27.88;;;17.65;;
48805;SDS011;34625;47.176;27.548;2024-01-11T14:05:10;29.00;;;17.52;;
48805;SDS011;34625;47.176;27.548;2024-01-11T14:07:42;22.88;;;16.50;;
48805;SDS011;34625;47.176;27.548;2024-01-11T14:10:09;27.15;;;16.88;;